Terminal Aerodrome Forecast
Issued by NWS

Home | Current Version | Previous Version | Text Only | Print | Product List | Glossary On
Versions: 1 2 3 4 5 6 7 8 9 10 11 12 13 14 15
217
FTUS41 KLWX 312341
TAFMTN
TAF
KMTN 312341Z 0100/0124 13003KT P6SM BKN250
     FM010900 00000KT 3SM BR SCT070
     FM011200 08005KT P6SM FEW050 SCT200
     FM012100 12008KT P6SM SCT050
      AMD NOT SKED 0102/0112=

USA.gov is the U.S. government's official web portal to all federal, state and local government web resources and services.